Flight Track Log - Related Links

Times and Time Zones

All times are in EDT time to prevent confusion due to time zone crossing. See the ASQ4179 flight status page for this flight to view local times or setup timezone preferences in your user account.

Time Position Orientation Groundspeed Altitude Reporting Facility
EDT Latitude Longitude Course Direction KTS MPH feet Rate Location/Type
Mon 12:02:15 AM 29.9594 -95.3414 256° West 173 199 600  Level Houston Center
Mon 12:03:34 AM 29.9489 -95.3886 256° West 186 214 3,000 1,572 Climbing Houston Center
Mon 12:04:40 AM 29.9939 -95.3697 20° North 192 221 4,400 1,465 Climbing Houston Center
Mon 12:05:41 AM 30.0675 -95.3333 23° Northeast 239 275 6,100 1,785 Climbing Houston Center
Mon 12:06:41 AM 30.1375 -95.3003 22° Northeast 267 307 8,000 1,934 Climbing Houston Center
Mon 12:07:42 AM 30.2067 -95.2647 24° Northeast 272 313 10,000 1,537 Climbing Houston Center
Mon 12:08:42 AM 30.2819 -95.2283 23° Northeast 289 333 11,100 1,041 Climbing Houston Center
Mon 12:09:43 AM 30.3636 -95.1881 23° Northeast 315 362 12,100 992 Climbing Houston Center
Mon 12:10:43 AM 30.4450 -95.1469 24° Northeast 333 383 13,100 992 Climbing Houston Center
Mon 12:11:44 AM 30.5317 -95.1042 23° Northeast 338 389 14,100 1,041 Climbing Houston Center
Mon 12:12:44 AM 30.6203 -95.0558 25° Northeast 348 400 15,200 1,140 Climbing Houston Center
Mon 12:13:45 AM 30.6981 -94.9872 37° Northeast 349 402 16,400 1,091 Climbing Houston Center
Mon 12:14:45 AM 30.7769 -94.9175 37° Northeast 354 407 17,400 1,041 Climbing Houston Center
Mon 12:15:46 AM 30.8550 -94.8469 38° Northeast 356 410 18,500 1,041 Climbing Houston Center
Mon 12:16:46 AM 30.9344 -94.7756 38° Northeast 361 415 19,500 992 Climbing Houston Center
Mon 12:17:47 AM 31.0144 -94.7042 37° Northeast 363 418 20,500 992 Climbing Houston Center
Mon 12:18:47 AM 31.0933 -94.6317 38° Northeast 367 422 21,500 1,041 Climbing Houston Center
Mon 12:19:48 AM 31.1889 -94.5442 38° Northeast 371 427 22,600 1,041 Climbing Houston Center
Mon 12:20:48 AM 31.2692 -94.4722 37° Northeast 369 425 23,600 1,000 Climbing Houston Center
Mon 12:21:48 AM 31.3503 -94.4003 37° Northeast 369 425 24,600 992 Climbing Houston Center
Mon 12:22:49 AM 31.4311 -94.3261 38° Northeast 370 426 25,600 992 Climbing Houston Center
Mon 12:23:49 AM 31.5122 -94.2525 38° Northeast 369 425 26,600 992 Climbing Houston Center
Mon 12:24:50 AM 31.5936 -94.1783 38° Northeast 371 427 27,600 942 Climbing Houston Center
Mon 12:25:50 AM 31.6747 -94.1033 38° Northeast 371 427 28,500 942 Climbing Houston Center
Mon 12:26:51 AM 31.7567 -94.0289 38° Northeast 373 429 29,500 942 Climbing Houston Center
Mon 12:27:51 AM 31.8314 -93.9606 38° Northeast 378 435 30,400 978 Climbing Houston Center
Mon 12:28:23 AM 31.8789 -93.9175 38° Northeast 367 422 31,000 1,109 Climbing Fort Worth Center
Mon 12:29:23 AM 31.9725 -93.8306 38° Northeast 372 428 32,100 1,050 Climbing Fort Worth Center
Mon 12:30:23 AM 32.0581 -93.7561 36° Northeast 377 434 33,100 950 Climbing Fort Worth Center
Mon 12:31:23 AM 32.1311 -93.6844 40° Northeast 377 434 34,000 900 Climbing Fort Worth Center
Mon 12:32:23 AM 32.2122 -93.6028 40° Northeast 377 434 34,900 500 Climbing Fort Worth Center
Mon 12:33:23 AM 32.3053 -93.5128 39° Northeast 387 445 35,000 50 Climbing Fort Worth Center
Mon 12:34:23 AM 32.3986 -93.4275 38° Northeast 399 459 35,000  Level Fort Worth Center
Mon 12:35:23 AM 32.4919 -93.3397 38° Northeast 412 474 35,000  Level Fort Worth Center
Mon 12:36:23 AM 32.5872 -93.2517 38° Northeast 428 493 35,000  Level Fort Worth Center
Mon 12:37:23 AM 32.6864 -93.1583 38° Northeast 439 505 35,000  Level Fort Worth Center
Mon 12:38:23 AM 32.7875 -93.0619 39° Northeast 444 511 35,000  Level Fort Worth Center
Mon 12:39:23 AM 32.8883 -92.9681 38° Northeast 456 525 35,000  Level Fort Worth Center
Mon 12:40:23 AM 32.9894 -92.8739 38° Northeast 456 525 35,000  Level Fort Worth Center
Mon 12:42:50 AM 33.2294 -92.6444 39° Northeast 444 511 35,000  Level Memphis Center
Mon 12:43:50 AM 33.3292 -92.5503 38° Northeast 451 519 35,000  Level Memphis Center
Mon 12:44:50 AM 33.4311 -92.4506 39° Northeast 459 528 35,000  Level Memphis Center
Mon 12:45:50 AM 33.5308 -92.3533 39° Northeast 459 528 35,000  Level Memphis Center
Mon 12:46:50 AM 33.6303 -92.2558 39° Northeast 459 528 35,000  Level Memphis Center
Mon 12:47:50 AM 33.7339 -92.1606 37° Northeast 453 521 35,000  Level Memphis Center
Mon 12:48:50 AM 33.8314 -92.0628 40° Northeast 458 527 35,000  Level Memphis Center
Mon 12:49:50 AM 33.9328 -91.9669 38° Northeast 453 521 35,000  Level Memphis Center
Mon 12:50:50 AM 34.0322 -91.8686 39° Northeast 453 521 35,000  Level Memphis Center
Mon 12:51:50 AM 34.1294 -91.7675 41° Northeast 453 521 35,000  Level Memphis Center
Mon 12:52:50 AM 34.2158 -91.6808 40° Northeast 453 521 35,000  Level Memphis Center
Mon 12:53:50 AM 34.3275 -91.5744 38° Northeast 453 521 35,000 200 Level Memphis Center
Mon 12:54:50 AM 34.4264 -91.4778 39° Northeast 453 521 35,400 700 Climbing Memphis Center
Mon 12:55:50 AM 34.5211 -91.3806 40° Northeast 446 513 36,400 800 Climbing Memphis Center
Mon 12:56:50 AM 34.6158 -91.2883 39° Northeast 446 513 37,000 300 Climbing Memphis Center
Mon 12:57:50 AM 34.7042 -91.1933 41° Northeast 441 507 37,000  Level Memphis Center
Mon 12:58:50 AM 34.8028 -91.1006 38° Northeast 435 501 37,000  Level Memphis Center
Mon 12:59:50 AM 34.9036 -90.9978 40° Northeast 447 514 37,000  Level Memphis Center
Mon 01:00:50 AM 34.9978 -90.9022 40° Northeast 452 520 37,000  Level Memphis Center
Mon 01:01:50 AM 35.0858 -90.8114 40° Northeast 452 520 37,000  Level Memphis Center
Mon 01:02:50 AM 35.1842 -90.7103 40° Northeast 452 520 37,000  Level Memphis Center
Mon 01:03:50 AM 35.2803 -90.6114 40° Northeast 457 526 37,000  Level Memphis Center
Mon 01:04:50 AM 35.3786 -90.5125 39° Northeast 451 519 37,000  Level Memphis Center
Mon 01:05:50 AM 35.4767 -90.4106 40° Northeast 451 519 37,000  Level Memphis Center
Mon 01:06:50 AM 35.5853 -90.2983 40° Northeast 456 525 37,000  Level Memphis Center
Mon 01:07:50 AM 35.6811 -90.1986 40° Northeast 456 525 37,000  Level Memphis Center
Mon 01:08:50 AM 35.7725 -90.0986 42° Northeast 448 516 37,000  Level Memphis Center
Mon 01:09:50 AM 35.8683 -89.9958 41° Northeast 448 516 37,000  Level Memphis Center
Mon 01:10:50 AM 35.9658 -89.8953 40° Northeast 453 521 37,000  Level Memphis Center
Mon 01:11:50 AM 36.0633 -89.7919 41° Northeast 453 521 37,000  Level Memphis Center
Mon 01:12:50 AM 36.1589 -89.6936 40° Northeast 453 521 37,000  Level Memphis Center
Mon 01:13:50 AM 36.2564 -89.5925 40° Northeast 453 521 37,000  Level Memphis Center
Mon 01:14:50 AM 36.3411 -89.5067 39° Northeast 453 521 37,000  Level Memphis Center
Mon 01:15:50 AM 36.4425 -89.3947 42° Northeast 460 529 37,000  Level Memphis Center
Mon 01:16:50 AM 36.5417 -89.2956 39° Northeast 461 531 37,000  Level Memphis Center
Mon 01:17:50 AM 36.6325 -89.1933 42° Northeast 448 516 37,000  Level Memphis Center
Mon 01:18:50 AM 36.7253 -89.0911 41° Northeast 448 516 37,000  Level Memphis Center
Mon 01:19:50 AM 36.8242 -88.9883 40° Northeast 448 516 37,000  Level Memphis Center
Mon 01:20:50 AM 36.9189 -88.8831 42° Northeast 453 521 37,000  Level Memphis Center
Mon 01:21:50 AM 37.0136 -88.7800 41° Northeast 453 521 37,000  Level Memphis Center
Mon 01:23:33 AM 37.1722 -88.6028 42° Northeast 454 522 37,000  Level Indianapolis Center
Mon 01:24:33 AM 37.2692 -88.4967 41° Northeast 456 525 37,000  Level Indianapolis Center
Mon 01:25:33 AM 37.3661 -88.3897 41° Northeast 457 526 37,000  Level Indianapolis Center
Mon 01:26:33 AM 37.4628 -88.2828 41° Northeast 459 528 37,000  Level Indianapolis Center
Mon 01:27:33 AM 37.5597 -88.1753 41° Northeast 460 529 37,000  Level Indianapolis Center
Mon 01:28:33 AM 37.6558 -88.0683 41° Northeast 456 525 37,000  Level Indianapolis Center
Mon 01:29:34 AM 37.7531 -87.9589 42° Northeast 460 529 37,000  Level Indianapolis Center
Mon 01:30:34 AM 37.8594 -87.8492 39° Northeast 459 528 37,000  Level Indianapolis Center
Mon 01:31:34 AM 37.9497 -87.7831 30° Northeast 462 532 37,000  Level Indianapolis Center
Mon 01:32:34 AM 38.0603 -87.7000 31° Northeast 461 531 37,000 -150 Level Indianapolis Center
Mon 01:33:34 AM 38.1739 -87.6147 31° Northeast 468 539 36,700 -1,350 Descending Indianapolis Center
Mon 01:34:34 AM 38.2878 -87.5300 30° Northeast 468 539 34,300 -2,300 Descending Indianapolis Center
Mon 01:35:34 AM 38.3972 -87.4453 31° Northeast 457 526 32,100 -2,150 Descending Indianapolis Center
Mon 01:36:34 AM 38.5000 -87.3683 30° Northeast 427 491 30,000 -2,033 Descending Indianapolis Center
Mon 01:37:35 AM 38.6014 -87.2911 31° Northeast 420 483 28,000 -1,983 Descending Indianapolis Center
Mon 01:38:35 AM 38.7081 -87.2092 31° Northeast 439 505 26,000 -2,100 Descending Indianapolis Center
Mon 01:39:35 AM 38.8181 -87.1258 31° Northeast 452 520 23,800 -2,350 Descending Indianapolis Center
Mon 01:40:35 AM 38.9244 -87.0422 31° Northeast 448 516 21,300 -2,500 Descending Indianapolis Center
Mon 01:41:35 AM 39.0269 -86.9644 31° Northeast 430 495 18,800 -2,350 Descending Indianapolis Center
Mon 01:42:35 AM 39.1219 -86.8883 32° Northeast 407 468 16,600 -2,050 Descending Indianapolis Center
Mon 01:43:35 AM 39.2067 -86.8264 30° Northeast 397 457 14,700 -2,100 Descending Indianapolis Center
Mon 01:44:35 AM 39.3000 -86.7581 30° Northeast 389 448 12,400 -2,200 Descending Indianapolis Center
Mon 01:45:35 AM 39.4031 -86.6822 30° Northeast 360 414 10,300 -1,550 Descending Indianapolis Center
Mon 01:46:35 AM 39.4625 -86.6103 43° Northeast 302 348 9,300 -1,835 Descending Indianapolis Center
Mon 01:47:36 AM 39.5125 -86.5450 45° Northeast 267 307 6,600 -2,083 Descending Indianapolis Center
Mon 01:48:36 AM 39.5594 -86.4828 46° Northeast 248 285 5,100 -1,450 Descending Indianapolis Center
Mon 01:49:36 AM 39.6017 -86.4294 44° Northeast 222 255 3,700 -1,300 Descending Indianapolis Center
Mon 01:50:36 AM 39.6392 -86.3831 44° Northeast 203 234 2,500 -900 Descending Indianapolis Center
Mon 01:51:36 AM 39.6622 -86.3528 45° Northeast 149 171 1,900 -600 Descending Indianapolis Center
Mon 01:52:36 AM 39.6861 -86.3225 44° Northeast 127 146 1,300 -500 Descending Indianapolis Center
Mon 01:53:36 AM 39.7081 -86.2947 44° Northeast 125 144 900 -400 Descending Indianapolis Center
Mon 01:55:00 AM 39.7167 -86.2833 142° Southeast  Level FlightAware Approximate

Login

Don't have an account? Register now (free) for customized features, flight alerts, and more!